sensor_id;sensor_type;location;lat;lon;timestamp;P1;durP1;ratioP1;P2;durP2;ratioP2
53875;SDS011;39789;53.216;5.624;2023-05-29T00:00:04;12.35;;;3.22;;
53875;SDS011;39789;53.216;5.624;2023-05-29T00:02:34;20.42;;;3.67;;
53875;SDS011;39789;53.216;5.624;2023-05-29T00:05:00;24.25;;;4.35;;
53875;SDS011;39789;53.216;5.624;2023-05-29T00:07:28;18.27;;;3.90;;
53875;SDS011;39789;53.216;5.624;2023-05-29T00:09:55;13.40;;;3.72;;
53875;SDS011;39789;53.216;5.624;2023-05-29T00:12:20;13.25;;;3.72;;
53875;SDS011;39789;53.216;5.624;2023-05-29T00:14:48;12.63;;;3.33;;
53875;SDS011;39789;53.216;5.624;2023-05-29T00:17:13;14.02;;;3.70;;
53875;SDS011;39789;53.216;5.624;2023-05-29T00:19:40;14.93;;;3.75;;
53875;SDS011;39789;53.216;5.624;2023-05-29T00:22:06;12.75;;;3.78;;
53875;SDS011;39789;53.216;5.624;2023-05-29T00:24:32;16.00;;;4.20;;
53875;SDS011;39789;53.216;5.624;2023-05-29T00:26:57;13.55;;;3.72;;
53875;SDS011;39789;53.216;5.624;2023-05-29T00:29:23;13.90;;;3.33;;
53875;SDS011;39789;53.216;5.624;2023-05-29T00:31:48;14.80;;;3.85;;
53875;SDS011;39789;53.216;5.624;2023-05-29T00:34:14;22.60;;;4.43;;
53875;SDS011;39789;53.216;5.624;2023-05-29T00:36:40;18.88;;;3.58;;
53875;SDS011;39789;53.216;5.624;2023-05-29T00:39:05;13.25;;;3.17;;
53875;SDS011;39789;53.216;5.624;2023-05-29T00:41:31;13.48;;;3.58;;
53875;SDS011;39789;53.216;5.624;2023-05-29T00:43:56;13.50;;;3.70;;
53875;SDS011;39789;53.216;5.624;2023-05-29T00:46:22;12.07;;;3.85;;
53875;SDS011;39789;53.216;5.624;2023-05-29T00:48:48;16.17;;;3.58;;
53875;SDS011;39789;53.216;5.624;2023-05-29T00:51:14;15.75;;;2.92;;
53875;SDS011;39789;53.216;5.624;2023-05-29T00:53:41;14.57;;;3.42;;
53875;SDS011;39789;53.216;5.624;2023-05-29T00:56:09;15.70;;;3.45;;
53875;SDS011;39789;53.216;5.624;2023-05-29T00:58:35;14.43;;;3.72;;
53875;SDS011;39789;53.216;5.624;2023-05-29T01:01:01;11.32;;;3.40;;
53875;SDS011;39789;53.216;5.624;2023-05-29T01:03:28;11.40;;;3.20;;
53875;SDS011;39789;53.216;5.624;2023-05-29T01:05:54;11.25;;;2.97;;
53875;SDS011;39789;53.216;5.624;2023-05-29T01:08:19;16.70;;;4.75;;
53875;SDS011;39789;53.216;5.624;2023-05-29T01:10:45;11.60;;;3.42;;
53875;SDS011;39789;53.216;5.624;2023-05-29T01:13:18;16.88;;;3.35;;
53875;SDS011;39789;53.216;5.624;2023-05-29T01:16:05;16.77;;;3.22;;
53875;SDS011;39789;53.216;5.624;2023-05-29T01:18:54;12.73;;;4.13;;
53875;SDS011;39789;53.216;5.624;2023-05-29T01:21:50;14.20;;;3.13;;
53875;SDS011;39789;53.216;5.624;2023-05-29T01:26:56;15.77;;;3.42;;
53875;SDS011;39789;53.216;5.624;2023-05-29T01:29:26;8.35;;;2.95;;
53875;SDS011;39789;53.216;5.624;2023-05-29T01:31:54;14.93;;;3.53;;
53875;SDS011;39789;53.216;5.624;2023-05-29T01:34:20;11.55;;;3.33;;
53875;SDS011;39789;53.216;5.624;2023-05-29T01:36:46;12.73;;;3.33;;
53875;SDS011;39789;53.216;5.624;2023-05-29T01:39:12;11.13;;;3.53;;
53875;SDS011;39789;53.216;5.624;2023-05-29T01:41:38;14.57;;;3.67;;
53875;SDS011;39789;53.216;5.624;2023-05-29T01:44:05;18.30;;;3.90;;
53875;SDS011;39789;53.216;5.624;2023-05-29T01:46:35;18.05;;;3.53;;
53875;SDS011;39789;53.216;5.624;2023-05-29T01:49:02;7.72;;;3.05;;
53875;SDS011;39789;53.216;5.624;2023-05-29T01:51:29;19.63;;;4.05;;
53875;SDS011;39789;53.216;5.624;2023-05-29T01:53:56;16.95;;;3.90;;
53875;SDS011;39789;53.216;5.624;2023-05-29T01:56:24;12.70;;;3.60;;
53875;SDS011;39789;53.216;5.624;2023-05-29T01:58:51;10.75;;;3.40;;
53875;SDS011;39789;53.216;5.624;2023-05-29T02:01:19;12.85;;;2.95;;
53875;SDS011;39789;53.216;5.624;2023-05-29T02:03:46;10.60;;;3.13;;
53875;SDS011;39789;53.216;5.624;2023-05-29T02:06:12;12.90;;;3.58;;
53875;SDS011;39789;53.216;5.624;2023-05-29T02:08:37;11.10;;;2.63;;
53875;SDS011;39789;53.216;5.624;2023-05-29T02:11:03;14.32;;;3.60;;
53875;SDS011;39789;53.216;5.624;2023-05-29T02:13:28;9.75;;;3.55;;
53875;SDS011;39789;53.216;5.624;2023-05-29T02:15:54;14.52;;;3.45;;
53875;SDS011;39789;53.216;5.624;2023-05-29T02:18:20;13.13;;;3.33;;
53875;SDS011;39789;53.216;5.624;2023-05-29T02:20:45;18.35;;;4.65;;
53875;SDS011;39789;53.216;5.624;2023-05-29T02:23:11;12.57;;;3.75;;
53875;SDS011;39789;53.216;5.624;2023-05-29T02:25:37;13.35;;;3.60;;
53875;SDS011;39789;53.216;5.624;2023-05-29T02:28:03;11.43;;;2.90;;
53875;SDS011;39789;53.216;5.624;2023-05-29T02:30:29;14.13;;;2.90;;
53875;SDS011;39789;53.216;5.624;2023-05-29T02:32:55;16.52;;;3.55;;
53875;SDS011;39789;53.216;5.624;2023-05-29T02:35:21;11.30;;;3.33;;
53875;SDS011;39789;53.216;5.624;2023-05-29T02:37:51;15.45;;;3.60;;
53875;SDS011;39789;53.216;5.624;2023-05-29T02:40:17;13.77;;;3.08;;
53875;SDS011;39789;53.216;5.624;2023-05-29T02:42:43;9.77;;;3.05;;
53875;SDS011;39789;53.216;5.624;2023-05-29T02:45:09;13.40;;;3.28;;
53875;SDS011;39789;53.216;5.624;2023-05-29T02:47:35;13.73;;;3.53;;
53875;SDS011;39789;53.216;5.624;2023-05-29T02:50:01;13.48;;;3.30;;
53875;SDS011;39789;53.216;5.624;2023-05-29T02:52:27;14.60;;;4.35;;
53875;SDS011;39789;53.216;5.624;2023-05-29T02:54:53;12.70;;;3.10;;
53875;SDS011;39789;53.216;5.624;2023-05-29T02:57:22;14.43;;;3.22;;
53875;SDS011;39789;53.216;5.624;2023-05-29T02:59:47;25.30;;;3.88;;
53875;SDS011;39789;53.216;5.624;2023-05-29T03:02:14;11.57;;;3.17;;
53875;SDS011;39789;53.216;5.624;2023-05-29T03:04:39;15.68;;;3.60;;
53875;SDS011;39789;53.216;5.624;2023-05-29T03:07:05;13.50;;;3.25;;
53875;SDS011;39789;53.216;5.624;2023-05-29T03:09:31;12.45;;;2.97;;
53875;SDS011;39789;53.216;5.624;2023-05-29T03:11:57;8.27;;;2.78;;
53875;SDS011;39789;53.216;5.624;2023-05-29T03:14:26;17.25;;;3.83;;
53875;SDS011;39789;53.216;5.624;2023-05-29T03:16:52;14.32;;;3.10;;
53875;SDS011;39789;53.216;5.624;2023-05-29T03:19:18;9.23;;;3.00;;
53875;SDS011;39789;53.216;5.624;2023-05-29T03:21:44;14.82;;;3.50;;
53875;SDS011;39789;53.216;5.624;2023-05-29T03:24:10;11.27;;;2.85;;
53875;SDS011;39789;53.216;5.624;2023-05-29T03:26:36;12.90;;;3.30;;
53875;SDS011;39789;53.216;5.624;2023-05-29T03:29:02;9.23;;;3.13;;
53875;SDS011;39789;53.216;5.624;2023-05-29T03:31:27;8.55;;;2.65;;
53875;SDS011;39789;53.216;5.624;2023-05-29T03:33:53;9.35;;;2.70;;
53875;SDS011;39789;53.216;5.624;2023-05-29T03:36:18;12.52;;;3.20;;
53875;SDS011;39789;53.216;5.624;2023-05-29T03:38:44;12.05;;;3.58;;
53875;SDS011;39789;53.216;5.624;2023-05-29T03:41:10;14.57;;;2.85;;
53875;SDS011;39789;53.216;5.624;2023-05-29T03:43:35;11.85;;;3.28;;
53875;SDS011;39789;53.216;5.624;2023-05-29T03:46:01;12.52;;;2.67;;
53875;SDS011;39789;53.216;5.624;2023-05-29T03:48:27;8.32;;;2.90;;
53875;SDS011;39789;53.216;5.624;2023-05-29T03:50:52;8.15;;;2.72;;
53875;SDS011;39789;53.216;5.624;2023-05-29T03:53:18;11.80;;;2.92;;
53875;SDS011;39789;53.216;5.624;2023-05-29T03:55:43;9.57;;;3.00;;
53875;SDS011;39789;53.216;5.624;2023-05-29T03:58:09;17.83;;;3.70;;
53875;SDS011;39789;53.216;5.624;2023-05-29T04:00:37;10.25;;;3.17;;
53875;SDS011;39789;53.216;5.624;2023-05-29T04:03:03;10.60;;;3.03;;
53875;SDS011;39789;53.216;5.624;2023-05-29T04:05:28;9.00;;;2.53;;
53875;SDS011;39789;53.216;5.624;2023-05-29T04:07:55;13.05;;;3.38;;
53875;SDS011;39789;53.216;5.624;2023-05-29T04:10:20;10.50;;;3.13;;
53875;SDS011;39789;53.216;5.624;2023-05-29T04:12:46;16.38;;;3.50;;
53875;SDS011;39789;53.216;5.624;2023-05-29T04:15:11;13.90;;;3.33;;
53875;SDS011;39789;53.216;5.624;2023-05-29T04:17:37;13.70;;;2.72;;
53875;SDS011;39789;53.216;5.624;2023-05-29T04:20:02;10.23;;;3.42;;
53875;SDS011;39789;53.216;5.624;2023-05-29T04:22:33;11.40;;;2.95;;
53875;SDS011;39789;53.216;5.624;2023-05-29T04:25:03;12.07;;;2.88;;
53875;SDS011;39789;53.216;5.624;2023-05-29T04:27:29;11.45;;;3.63;;
53875;SDS011;39789;53.216;5.624;2023-05-29T04:29:56;10.82;;;2.90;;
53875;SDS011;39789;53.216;5.624;2023-05-29T04:32:23;11.85;;;3.30;;
53875;SDS011;39789;53.216;5.624;2023-05-29T04:34:48;8.45;;;2.97;;
53875;SDS011;39789;53.216;5.624;2023-05-29T04:37:14;14.93;;;3.42;;
53875;SDS011;39789;53.216;5.624;2023-05-29T04:39:40;11.48;;;2.70;;
53875;SDS011;39789;53.216;5.624;2023-05-29T04:42:05;11.43;;;2.85;;
53875;SDS011;39789;53.216;5.624;2023-05-29T04:44:31;14.82;;;3.70;;
53875;SDS011;39789;53.216;5.624;2023-05-29T04:46:58;13.20;;;3.33;;
53875;SDS011;39789;53.216;5.624;2023-05-29T04:49:23;11.38;;;3.42;;
53875;SDS011;39789;53.216;5.624;2023-05-29T04:51:49;15.43;;;2.72;;
53875;SDS011;39789;53.216;5.624;2023-05-29T04:54:18;7.47;;;2.60;;
53875;SDS011;39789;53.216;5.624;2023-05-29T04:56:45;11.50;;;2.88;;
53875;SDS011;39789;53.216;5.624;2023-05-29T04:59:11;17.48;;;3.35;;
53875;SDS011;39789;53.216;5.624;2023-05-29T05:01:37;28.52;;;3.42;;
53875;SDS011;39789;53.216;5.624;2023-05-29T05:04:02;10.18;;;3.17;;
53875;SDS011;39789;53.216;5.624;2023-05-29T05:06:28;12.95;;;2.80;;
53875;SDS011;39789;53.216;5.624;2023-05-29T05:08:54;8.98;;;3.17;;
53875;SDS011;39789;53.216;5.624;2023-05-29T05:11:21;13.10;;;3.15;;
53875;SDS011;39789;53.216;5.624;2023-05-29T05:13:47;7.10;;;2.22;;
53875;SDS011;39789;53.216;5.624;2023-05-29T05:16:13;10.75;;;3.03;;
53875;SDS011;39789;53.216;5.624;2023-05-29T05:18:38;13.40;;;3.30;;
53875;SDS011;39789;53.216;5.624;2023-05-29T05:21:04;13.38;;;3.13;;
53875;SDS011;39789;53.216;5.624;2023-05-29T05:23:30;10.43;;;2.38;;
53875;SDS011;39789;53.216;5.624;2023-05-29T05:25:56;10.02;;;2.88;;
53875;SDS011;39789;53.216;5.624;2023-05-29T05:28:24;10.52;;;3.33;;
53875;SDS011;39789;53.216;5.624;2023-05-29T05:30:50;9.98;;;2.78;;
53875;SDS011;39789;53.216;5.624;2023-05-29T05:33:16;12.48;;;3.75;;
53875;SDS011;39789;53.216;5.624;2023-05-29T05:35:42;12.27;;;3.33;;
53875;SDS011;39789;53.216;5.624;2023-05-29T05:38:08;10.48;;;2.97;;
53875;SDS011;39789;53.216;5.624;2023-05-29T05:40:34;11.77;;;3.67;;
53875;SDS011;39789;53.216;5.624;2023-05-29T05:43:00;9.82;;;3.35;;
53875;SDS011;39789;53.216;5.624;2023-05-29T05:45:25;15.05;;;3.95;;
53875;SDS011;39789;53.216;5.624;2023-05-29T05:47:51;12.50;;;2.70;;
53875;SDS011;39789;53.216;5.624;2023-05-29T05:50:16;11.77;;;3.03;;
53875;SDS011;39789;53.216;5.624;2023-05-29T05:52:42;13.48;;;3.40;;
53875;SDS011;39789;53.216;5.624;2023-05-29T05:55:08;13.80;;;3.40;;
53875;SDS011;39789;53.216;5.624;2023-05-29T05:57:33;15.23;;;3.58;;
53875;SDS011;39789;53.216;5.624;2023-05-29T06:00:00;17.75;;;3.50;;
53875;SDS011;39789;53.216;5.624;2023-05-29T06:02:33;9.60;;;3.20;;
53875;SDS011;39789;53.216;5.624;2023-05-29T06:04:58;12.50;;;3.13;;
53875;SDS011;39789;53.216;5.624;2023-05-29T06:07:24;13.98;;;3.35;;
53875;SDS011;39789;53.216;5.624;2023-05-29T06:09:50;10.95;;;3.28;;
53875;SDS011;39789;53.216;5.624;2023-05-29T06:12:15;15.32;;;3.45;;
53875;SDS011;39789;53.216;5.624;2023-05-29T06:14:41;14.35;;;3.53;;
53875;SDS011;39789;53.216;5.624;2023-05-29T06:17:07;12.18;;;3.78;;
53875;SDS011;39789;53.216;5.624;2023-05-29T06:19:32;12.90;;;3.38;;
53875;SDS011;39789;53.216;5.624;2023-05-29T06:21:58;12.73;;;3.20;;
53875;SDS011;39789;53.216;5.624;2023-05-29T06:24:23;11.23;;;3.60;;
53875;SDS011;39789;53.216;5.624;2023-05-29T06:26:49;11.88;;;4.03;;
53875;SDS011;39789;53.216;5.624;2023-05-29T06:29:15;15.32;;;3.25;;
53875;SDS011;39789;53.216;5.624;2023-05-29T06:31:41;14.40;;;3.17;;
53875;SDS011;39789;53.216;5.624;2023-05-29T06:34:06;12.60;;;2.92;;
53875;SDS011;39789;53.216;5.624;2023-05-29T06:36:32;9.93;;;2.80;;
53875;SDS011;39789;53.216;5.624;2023-05-29T06:38:58;14.60;;;4.60;;
53875;SDS011;39789;53.216;5.624;2023-05-29T06:41:23;15.90;;;3.80;;
53875;SDS011;39789;53.216;5.624;2023-05-29T06:43:49;17.38;;;4.07;;
53875;SDS011;39789;53.216;5.624;2023-05-29T06:46:16;12.68;;;4.35;;
53875;SDS011;39789;53.216;5.624;2023-05-29T06:48:42;13.90;;;4.10;;
53875;SDS011;39789;53.216;5.624;2023-05-29T06:51:11;14.15;;;4.22;;
53875;SDS011;39789;53.216;5.624;2023-05-29T06:53:40;11.43;;;3.25;;
53875;SDS011;39789;53.216;5.624;2023-05-29T06:56:06;11.25;;;3.65;;
53875;SDS011;39789;53.216;5.624;2023-05-29T06:58:32;16.95;;;4.13;;
53875;SDS011;39789;53.216;5.624;2023-05-29T07:00:58;13.43;;;5.15;;
53875;SDS011;39789;53.216;5.624;2023-05-29T07:03:27;15.25;;;3.88;;
53875;SDS011;39789;53.216;5.624;2023-05-29T07:05:53;12.70;;;3.63;;
53875;SDS011;39789;53.216;5.624;2023-05-29T07:08:18;17.52;;;4.43;;
53875;SDS011;39789;53.216;5.624;2023-05-29T07:10:44;17.23;;;4.82;;
53875;SDS011;39789;53.216;5.624;2023-05-29T07:13:13;14.63;;;4.18;;
53875;SDS011;39789;53.216;5.624;2023-05-29T07:15:40;16.00;;;4.38;;
53875;SDS011;39789;53.216;5.624;2023-05-29T07:18:05;20.25;;;4.82;;
53875;SDS011;39789;53.216;5.624;2023-05-29T07:20:31;12.57;;;3.72;;
53875;SDS011;39789;53.216;5.624;2023-05-29T07:22:56;13.95;;;3.97;;
53875;SDS011;39789;53.216;5.624;2023-05-29T07:25:22;18.95;;;5.15;;
53875;SDS011;39789;53.216;5.624;2023-05-29T07:27:47;20.40;;;4.43;;
53875;SDS011;39789;53.216;5.624;2023-05-29T07:30:13;21.17;;;4.32;;
53875;SDS011;39789;53.216;5.624;2023-05-29T07:32:39;20.50;;;4.28;;
53875;SDS011;39789;53.216;5.624;2023-05-29T07:35:05;15.60;;;4.45;;
53875;SDS011;39789;53.216;5.624;2023-05-29T07:37:31;11.45;;;3.80;;
53875;SDS011;39789;53.216;5.624;2023-05-29T07:39:57;16.05;;;3.95;;
53875;SDS011;39789;53.216;5.624;2023-05-29T07:42:22;15.20;;;4.35;;
53875;SDS011;39789;53.216;5.624;2023-05-29T07:44:48;14.20;;;4.65;;
53875;SDS011;39789;53.216;5.624;2023-05-29T07:47:14;14.30;;;4.00;;
53875;SDS011;39789;53.216;5.624;2023-05-29T07:49:40;15.65;;;4.22;;
53875;SDS011;39789;53.216;5.624;2023-05-29T07:52:05;15.43;;;4.03;;
53875;SDS011;39789;53.216;5.624;2023-05-29T07:54:31;17.33;;;4.13;;
53875;SDS011;39789;53.216;5.624;2023-05-29T07:57:00;16.42;;;5.13;;
53875;SDS011;39789;53.216;5.624;2023-05-29T07:59:27;12.02;;;4.55;;
53875;SDS011;39789;53.216;5.624;2023-05-29T08:01:53;17.33;;;4.63;;
53875;SDS011;39789;53.216;5.624;2023-05-29T08:04:23;9.52;;;3.70;;
53875;SDS011;39789;53.216;5.624;2023-05-29T08:06:49;19.08;;;4.78;;
53875;SDS011;39789;53.216;5.624;2023-05-29T08:09:15;15.88;;;4.20;;
53875;SDS011;39789;53.216;5.624;2023-05-29T08:11:42;16.58;;;4.22;;
53875;SDS011;39789;53.216;5.624;2023-05-29T08:14:10;12.43;;;3.80;;
53875;SDS011;39789;53.216;5.624;2023-05-29T08:16:37;12.52;;;4.15;;
53875;SDS011;39789;53.216;5.624;2023-05-29T08:19:02;13.00;;;4.93;;
53875;SDS011;39789;53.216;5.624;2023-05-29T08:21:29;16.65;;;4.05;;
53875;SDS011;39789;53.216;5.624;2023-05-29T08:23:56;12.82;;;4.80;;
53875;SDS011;39789;53.216;5.624;2023-05-29T08:26:22;26.35;;;4.72;;
53875;SDS011;39789;53.216;5.624;2023-05-29T08:28:48;9.50;;;3.90;;
53875;SDS011;39789;53.216;5.624;2023-05-29T08:31:13;19.98;;;4.25;;
53875;SDS011;39789;53.216;5.624;2023-05-29T08:33:39;15.38;;;3.17;;
53875;SDS011;39789;53.216;5.624;2023-05-29T08:36:05;20.25;;;4.53;;
53875;SDS011;39789;53.216;5.624;2023-05-29T08:38:30;14.63;;;4.13;;
53875;SDS011;39789;53.216;5.624;2023-05-29T08:40:56;11.80;;;3.63;;
53875;SDS011;39789;53.216;5.624;2023-05-29T08:43:25;19.52;;;4.03;;
53875;SDS011;39789;53.216;5.624;2023-05-29T08:45:57;16.38;;;4.53;;
53875;SDS011;39789;53.216;5.624;2023-05-29T08:48:25;16.10;;;4.70;;
53875;SDS011;39789;53.216;5.624;2023-05-29T08:50:53;11.30;;;4.07;;
53875;SDS011;39789;53.216;5.624;2023-05-29T08:53:21;13.52;;;4.35;;
53875;SDS011;39789;53.216;5.624;2023-05-29T08:55:47;18.17;;;4.20;;
53875;SDS011;39789;53.216;5.624;2023-05-29T08:58:16;17.27;;;4.18;;
53875;SDS011;39789;53.216;5.624;2023-05-29T09:00:43;13.38;;;3.85;;
53875;SDS011;39789;53.216;5.624;2023-05-29T09:03:12;15.18;;;4.03;;
53875;SDS011;39789;53.216;5.624;2023-05-29T09:05:38;17.13;;;5.00;;
53875;SDS011;39789;53.216;5.624;2023-05-29T09:08:05;17.55;;;4.07;;
53875;SDS011;39789;53.216;5.624;2023-05-29T09:10:36;11.80;;;4.38;;
53875;SDS011;39789;53.216;5.624;2023-05-29T09:13:04;15.38;;;4.10;;
53875;SDS011;39789;53.216;5.624;2023-05-29T09:15:30;12.65;;;4.05;;
53875;SDS011;39789;53.216;5.624;2023-05-29T09:17:57;13.63;;;4.47;;
53875;SDS011;39789;53.216;5.624;2023-05-29T09:20:23;17.88;;;4.82;;
53875;SDS011;39789;53.216;5.624;2023-05-29T09:25:29;21.85;;;5.43;;
53875;SDS011;39789;53.216;5.624;2023-05-29T09:27:58;15.00;;;3.65;;
53875;SDS011;39789;53.216;5.624;2023-05-29T09:30:40;18.45;;;4.13;;
53875;SDS011;39789;53.216;5.624;2023-05-29T09:33:12;14.75;;;4.57;;
53875;SDS011;39789;53.216;5.624;2023-05-29T09:35:39;20.15;;;5.10;;
53875;SDS011;39789;53.216;5.624;2023-05-29T09:38:06;17.98;;;6.20;;
53875;SDS011;39789;53.216;5.624;2023-05-29T09:40:33;16.70;;;4.93;;
53875;SDS011;39789;53.216;5.624;2023-05-29T09:43:03;15.30;;;4.28;;
53875;SDS011;39789;53.216;5.624;2023-05-29T09:45:32;19.08;;;4.30;;
53875;SDS011;39789;53.216;5.624;2023-05-29T09:47:58;12.63;;;3.70;;
53875;SDS011;39789;53.216;5.624;2023-05-29T09:50:27;19.25;;;4.32;;
53875;SDS011;39789;53.216;5.624;2023-05-29T09:52:53;15.15;;;4.82;;
53875;SDS011;39789;53.216;5.624;2023-05-29T09:55:23;23.88;;;4.60;;
53875;SDS011;39789;53.216;5.624;2023-05-29T09:57:51;15.85;;;4.10;;
53875;SDS011;39789;53.216;5.624;2023-05-29T10:00:18;14.48;;;4.05;;
53875;SDS011;39789;53.216;5.624;2023-05-29T10:02:45;15.15;;;4.53;;
53875;SDS011;39789;53.216;5.624;2023-05-29T10:05:10;19.90;;;4.72;;
53875;SDS011;39789;53.216;5.624;2023-05-29T10:07:37;16.02;;;4.28;;
53875;SDS011;39789;53.216;5.624;2023-05-29T10:10:08;13.95;;;4.18;;
53875;SDS011;39789;53.216;5.624;2023-05-29T10:12:36;10.38;;;3.83;;
53875;SDS011;39789;53.216;5.624;2023-05-29T10:15:05;15.00;;;4.63;;
53875;SDS011;39789;53.216;5.624;2023-05-29T10:17:36;17.08;;;4.10;;
53875;SDS011;39789;53.216;5.624;2023-05-29T10:20:05;13.75;;;3.95;;
53875;SDS011;39789;53.216;5.624;2023-05-29T10:22:32;12.13;;;3.35;;
53875;SDS011;39789;53.216;5.624;2023-05-29T10:24:59;16.27;;;4.57;;
53875;SDS011;39789;53.216;5.624;2023-05-29T10:27:25;13.10;;;4.28;;
53875;SDS011;39789;53.216;5.624;2023-05-29T10:35:42;24.02;;;5.50;;
53875;SDS011;39789;53.216;5.624;2023-05-29T10:38:16;16.38;;;4.32;;
53875;SDS011;39789;53.216;5.624;2023-05-29T10:40:43;9.70;;;3.40;;
53875;SDS011;39789;53.216;5.624;2023-05-29T10:43:31;17.35;;;4.38;;
53875;SDS011;39789;53.216;5.624;2023-05-29T10:45:57;11.43;;;3.70;;
53875;SDS011;39789;53.216;5.624;2023-05-29T10:50:53;13.48;;;5.03;;
53875;SDS011;39789;53.216;5.624;2023-05-29T10:53:23;11.95;;;4.13;;
53875;SDS011;39789;53.216;5.624;2023-05-29T10:55:51;21.45;;;4.70;;
53875;SDS011;39789;53.216;5.624;2023-05-29T10:58:18;15.40;;;4.13;;
53875;SDS011;39789;53.216;5.624;2023-05-29T11:00:44;11.30;;;3.17;;
53875;SDS011;39789;53.216;5.624;2023-05-29T11:03:12;15.88;;;3.97;;
53875;SDS011;39789;53.216;5.624;2023-05-29T11:08:42;13.80;;;3.72;;
53875;SDS011;39789;53.216;5.624;2023-05-29T11:11:12;11.25;;;3.72;;
53875;SDS011;39789;53.216;5.624;2023-05-29T11:13:39;18.67;;;3.90;;
53875;SDS011;39789;53.216;5.624;2023-05-29T11:16:13;11.23;;;3.95;;
53875;SDS011;39789;53.216;5.624;2023-05-29T11:18:44;16.83;;;4.53;;
53875;SDS011;39789;53.216;5.624;2023-05-29T11:23:48;14.98;;;3.97;;
53875;SDS011;39789;53.216;5.624;2023-05-29T11:26:16;12.60;;;2.83;;
53875;SDS011;39789;53.216;5.624;2023-05-29T11:28:42;10.68;;;3.08;;
53875;SDS011;39789;53.216;5.624;2023-05-29T11:31:08;12.57;;;3.35;;
53875;SDS011;39789;53.216;5.624;2023-05-29T11:33:35;12.05;;;3.60;;
53875;SDS011;39789;53.216;5.624;2023-05-29T11:36:11;16.77;;;3.28;;
53875;SDS011;39789;53.216;5.624;2023-05-29T11:38:37;14.40;;;3.50;;
53875;SDS011;39789;53.216;5.624;2023-05-29T11:41:03;15.30;;;3.83;;
53875;SDS011;39789;53.216;5.624;2023-05-29T11:43:28;17.45;;;3.65;;
53875;SDS011;39789;53.216;5.624;2023-05-29T11:45:54;15.00;;;3.67;;
53875;SDS011;39789;53.216;5.624;2023-05-29T11:48:20;12.65;;;3.20;;
53875;SDS011;39789;53.216;5.624;2023-05-29T11:50:46;12.25;;;3.33;;
53875;SDS011;39789;53.216;5.624;2023-05-29T11:53:12;10.80;;;3.63;;
53875;SDS011;39789;53.216;5.624;2023-05-29T11:55:38;14.60;;;3.95;;
53875;SDS011;39789;53.216;5.624;2023-05-29T11:58:04;11.65;;;3.42;;
53875;SDS011;39789;53.216;5.624;2023-05-29T12:00:34;12.40;;;3.63;;
53875;SDS011;39789;53.216;5.624;2023-05-29T12:03:05;15.00;;;3.90;;
53875;SDS011;39789;53.216;5.624;2023-05-29T12:05:32;15.15;;;4.07;;
53875;SDS011;39789;53.216;5.624;2023-05-29T12:08:09;12.40;;;3.17;;
53875;SDS011;39789;53.216;5.624;2023-05-29T12:10:35;10.98;;;3.60;;
53875;SDS011;39789;53.216;5.624;2023-05-29T12:13:01;16.38;;;3.72;;
53875;SDS011;39789;53.216;5.624;2023-05-29T12:15:26;12.60;;;3.38;;
53875;SDS011;39789;53.216;5.624;2023-05-29T12:17:53;14.20;;;3.20;;
53875;SDS011;39789;53.216;5.624;2023-05-29T12:20:22;6.75;;;2.70;;
53875;SDS011;39789;53.216;5.624;2023-05-29T12:22:48;12.65;;;3.17;;
53875;SDS011;39789;53.216;5.624;2023-05-29T12:25:16;10.30;;;3.20;;
53875;SDS011;39789;53.216;5.624;2023-05-29T12:27:43;12.88;;;3.00;;
53875;SDS011;39789;53.216;5.624;2023-05-29T12:30:14;12.75;;;3.03;;
53875;SDS011;39789;53.216;5.624;2023-05-29T12:32:43;14.43;;;3.22;;
53875;SDS011;39789;53.216;5.624;2023-05-29T12:37:46;11.77;;;3.33;;
53875;SDS011;39789;53.216;5.624;2023-05-29T12:40:23;13.02;;;3.25;;
53875;SDS011;39789;53.216;5.624;2023-05-29T12:42:53;9.32;;;3.45;;
53875;SDS011;39789;53.216;5.624;2023-05-29T12:45:21;8.48;;;3.53;;
53875;SDS011;39789;53.216;5.624;2023-05-29T12:47:55;10.82;;;3.47;;
53875;SDS011;39789;53.216;5.624;2023-05-29T12:50:22;11.10;;;3.15;;
53875;SDS011;39789;53.216;5.624;2023-05-29T12:53:15;12.60;;;3.17;;
53875;SDS011;39789;53.216;5.624;2023-05-29T12:55:40;11.93;;;3.42;;
53875;SDS011;39789;53.216;5.624;2023-05-29T12:58:08;10.00;;;3.70;;
53875;SDS011;39789;53.216;5.624;2023-05-29T13:00:36;9.63;;;3.22;;
53875;SDS011;39789;53.216;5.624;2023-05-29T13:03:03;11.35;;;3.03;;
53875;SDS011;39789;53.216;5.624;2023-05-29T13:05:31;15.80;;;3.03;;
53875;SDS011;39789;53.216;5.624;2023-05-29T13:07:56;13.77;;;3.45;;
53875;SDS011;39789;53.216;5.624;2023-05-29T13:10:23;15.57;;;3.58;;
53875;SDS011;39789;53.216;5.624;2023-05-29T13:12:50;15.68;;;3.63;;
53875;SDS011;39789;53.216;5.624;2023-05-29T13:15:19;10.10;;;3.20;;
53875;SDS011;39789;53.216;5.624;2023-05-29T13:17:46;14.90;;;3.67;;
53875;SDS011;39789;53.216;5.624;2023-05-29T13:20:13;11.70;;;3.17;;
53875;SDS011;39789;53.216;5.624;2023-05-29T13:22:39;11.98;;;3.00;;
53875;SDS011;39789;53.216;5.624;2023-05-29T13:25:06;9.75;;;2.97;;
53875;SDS011;39789;53.216;5.624;2023-05-29T13:27:34;13.45;;;3.22;;
53875;SDS011;39789;53.216;5.624;2023-05-29T13:30:00;11.13;;;2.95;;
53875;SDS011;39789;53.216;5.624;2023-05-29T13:32:27;8.55;;;3.47;;
53875;SDS011;39789;53.216;5.624;2023-05-29T13:34:52;11.45;;;3.67;;
53875;SDS011;39789;53.216;5.624;2023-05-29T13:37:18;12.38;;;3.35;;
53875;SDS011;39789;53.216;5.624;2023-05-29T13:39:43;13.25;;;3.20;;
53875;SDS011;39789;53.216;5.624;2023-05-29T13:42:09;14.50;;;3.85;;
53875;SDS011;39789;53.216;5.624;2023-05-29T13:44:36;13.73;;;3.42;;
53875;SDS011;39789;53.216;5.624;2023-05-29T13:47:02;14.45;;;3.33;;
53875;SDS011;39789;53.216;5.624;2023-05-29T13:49:27;14.25;;;2.85;;
53875;SDS011;39789;53.216;5.624;2023-05-29T13:51:56;10.95;;;3.03;;
53875;SDS011;39789;53.216;5.624;2023-05-29T13:54:22;9.68;;;2.65;;
53875;SDS011;39789;53.216;5.624;2023-05-29T13:56:48;8.13;;;2.88;;
53875;SDS011;39789;53.216;5.624;2023-05-29T13:59:14;9.57;;;2.85;;
53875;SDS011;39789;53.216;5.624;2023-05-29T14:01:42;13.95;;;3.15;;
53875;SDS011;39789;53.216;5.624;2023-05-29T14:04:09;9.38;;;2.95;;
53875;SDS011;39789;53.216;5.624;2023-05-29T14:06:35;7.95;;;3.00;;
53875;SDS011;39789;53.216;5.624;2023-05-29T14:09:02;11.52;;;2.95;;
53875;SDS011;39789;53.216;5.624;2023-05-29T14:11:27;10.25;;;3.20;;
53875;SDS011;39789;53.216;5.624;2023-05-29T14:13:53;8.60;;;2.78;;
53875;SDS011;39789;53.216;5.624;2023-05-29T14:16:18;19.35;;;3.70;;
53875;SDS011;39789;53.216;5.624;2023-05-29T14:18:44;8.45;;;2.85;;
53875;SDS011;39789;53.216;5.624;2023-05-29T14:21:10;9.10;;;3.50;;
53875;SDS011;39789;53.216;5.624;2023-05-29T14:23:37;12.45;;;3.05;;
53875;SDS011;39789;53.216;5.624;2023-05-29T14:26:03;8.90;;;2.63;;
53875;SDS011;39789;53.216;5.624;2023-05-29T14:28:28;10.52;;;2.80;;
53875;SDS011;39789;53.216;5.624;2023-05-29T14:30:54;9.43;;;2.97;;
53875;SDS011;39789;53.216;5.624;2023-05-29T14:33:20;15.77;;;3.25;;
53875;SDS011;39789;53.216;5.624;2023-05-29T14:35:45;13.38;;;2.90;;
53875;SDS011;39789;53.216;5.624;2023-05-29T14:38:11;10.57;;;3.08;;
53875;SDS011;39789;53.216;5.624;2023-05-29T14:40:36;9.23;;;2.70;;
53875;SDS011;39789;53.216;5.624;2023-05-29T14:43:03;13.35;;;3.10;;
53875;SDS011;39789;53.216;5.624;2023-05-29T14:45:28;12.27;;;3.33;;
53875;SDS011;39789;53.216;5.624;2023-05-29T14:47:54;11.73;;;2.78;;
53875;SDS011;39789;53.216;5.624;2023-05-29T14:50:19;12.98;;;2.45;;
53875;SDS011;39789;53.216;5.624;2023-05-29T14:52:45;9.82;;;2.60;;
53875;SDS011;39789;53.216;5.624;2023-05-29T14:55:12;13.27;;;2.55;;